Time;durP1;ratioP1;P1;durP2;ratioP2;P2;SDS_P1;SDS_P2;PMS_P1;PMS_P2;Temp;Humidity;BMP_temperature;BMP_pressure;BME280_temperature;BME280_humidity;BME280_pressure;Samples;Min_cycle;Max_cycle;Signal;HPM_P1;HPM_P2
2021/12/19 00:09:10;;;;;;;12.30;6.38;;;7.70;99.90;;;;;;5086523;28;20030;-45
2021/12/19 00:11:36;;;;;;;13.15;6.03;;;7.80;99.90;;;;;;5088585;28;20443;-44
2021/12/19 00:14:03;;;;;;;23.75;7.32;;;7.80;99.90;;;;;;5090309;28;20024;-43
2021/12/19 00:16:29;;;;;;;11.48;5.88;;;7.70;99.90;;;;;;5090650;28;20377;-43
2021/12/19 00:18:55;;;;;;;15.32;6.75;;;7.70;99.90;;;;;;5089973;28;20039;-43
2021/12/19 00:21:22;;;;;;;14.15;7.20;;;7.70;99.90;;;;;;5090469;28;20028;-44
2021/12/19 00:23:49;;;;;;;8.95;5.97;;;7.70;99.90;;;;;;5089943;28;20052;-42
2021/12/19 00:26:16;;;;;;;10.07;6.00;;;7.70;99.90;;;;;;5079674;28;20469;-42
2021/12/19 00:28:43;;;;;;;16.52;6.95;;;7.70;99.90;;;;;;5084650;28;20023;-43
2021/12/19 00:31:09;;;;;;;13.25;7.43;;;7.70;99.90;;;;;;5089886;28;20032;-43
2021/12/19 00:33:35;;;;;;;12.07;7.82;;;7.70;99.90;;;;;;5090095;28;20061;-43
2021/12/19 00:36:01;;;;;;;15.90;6.95;;;7.60;99.90;;;;;;5089984;28;20059;-42
2021/12/19 00:38:26;;;;;;;10.63;6.70;;;7.70;99.90;;;;;;5089439;28;20036;-42
2021/12/19 00:40:53;;;;;;;11.15;6.63;;;7.60;99.90;;;;;;5089716;28;20038;-42
2021/12/19 00:43:25;;;;;;;14.40;6.30;;;7.60;99.90;;;;;;5089938;28;20031;-42
2021/12/19 00:45:53;;;;;;;14.25;6.43;;;7.60;99.90;;;;;;5089844;28;20025;-42
2021/12/19 00:48:18;;;;;;;9.02;5.68;;;7.60;99.90;;;;;;5089111;28;20024;-43
2021/12/19 00:50:45;;;;;;;11.88;7.03;;;7.60;99.90;;;;;;5089445;28;20028;-42
2021/12/19 00:53:11;;;;;;;11.07;5.32;;;7.60;99.90;;;;;;5089761;28;20086;-43
2021/12/19 00:55:37;;;;;;;8.38;5.20;;;7.60;99.90;;;;;;5098681;28;20493;-42
2021/12/19 00:58:04;;;;;;;6.60;4.63;;;7.60;99.90;;;;;;5080137;28;20031;-42
2021/12/19 01:00:34;;;;;;;9.10;4.60;;;7.60;99.90;;;;;;5084914;28;20023;-42
2021/12/19 01:03:00;;;;;;;10.77;5.47;;;7.60;99.90;;;;;;5079178;28;20078;-42
2021/12/19 01:05:28;;;;;;;11.75;5.47;;;7.60;99.90;;;;;;5088967;28;20826;-42
2021/12/19 01:07:54;;;;;;;8.52;4.88;;;7.60;99.90;;;;;;5088538;28;20035;-42
2021/12/19 01:10:20;;;;;;;9.13;5.05;;;7.50;99.90;;;;;;5089490;28;20063;-42
2021/12/19 01:12:46;;;;;;;8.75;5.10;;;7.50;99.90;;;;;;5088899;28;20040;-42
2021/12/19 01:15:15;;;;;;;8.32;5.00;;;7.50;99.90;;;;;;5087931;28;20406;-42
2021/12/19 01:17:41;;;;;;;10.30;4.78;;;7.50;99.90;;;;;;5086973;28;20114;-43
2021/12/19 01:20:12;;;;;;;9.55;4.95;;;7.40;99.90;;;;;;5089197;28;20063;-42
2021/12/19 01:22:38;;;;;;;10.70;5.57;;;7.50;99.90;;;;;;5088729;28;20519;-42
2021/12/19 01:25:04;;;;;;;7.85;5.00;;;7.50;99.90;;;;;;5086964;28;20035;-42
2021/12/19 01:27:29;;;;;;;7.97;4.95;;;7.50;99.90;;;;;;5088545;28;20028;-42
2021/12/19 01:29:55;;;;;;;11.63;5.00;;;7.50;99.90;;;;;;5087550;28;20255;-42
2021/12/19 01:32:20;;;;;;;10.57;4.95;;;7.50;99.90;;;;;;5078561;28;20067;-43
2021/12/19 01:34:46;;;;;;;8.77;5.43;;;7.50;99.90;;;;;;5084509;28;20276;-42
2021/12/19 01:37:12;;;;;;;10.95;5.05;;;7.50;99.90;;;;;;5088724;28;20073;-42
2021/12/19 01:39:37;;;;;;;10.80;5.35;;;7.50;99.90;;;;;;5088125;28;20481;-42
2021/12/19 01:42:03;;;;;;;9.90;5.57;;;7.50;99.90;;;;;;5088609;28;20274;-42
2021/12/19 01:44:29;;;;;;;8.57;5.55;;;7.50;99.90;;;;;;5088810;28;20024;-42
2021/12/19 01:46:54;;;;;;;9.90;6.15;;;7.40;99.90;;;;;;5088243;28;20028;-42
2021/12/19 01:49:21;;;;;;;11.68;5.97;;;7.40;99.90;;;;;;5088161;28;20498;-42
2021/12/19 01:51:48;;;;;;;14.63;6.40;;;7.50;99.90;;;;;;5088271;28;20028;-43
2021/12/19 01:54:14;;;;;;;15.20;6.40;;;7.50;99.90;;;;;;5088664;28;20162;-42
2021/12/19 01:56:40;;;;;;;8.90;5.82;;;7.40;99.90;;;;;;5088437;28;20370;-42
2021/12/19 01:59:10;;;;;;;9.70;5.65;;;7.40;99.90;;;;;;5086628;28;20034;-42
2021/12/19 02:01:43;;;;;;;11.30;5.95;;;7.40;99.90;;;;;;5081500;28;20019;-42
2021/12/19 02:04:13;;;;;;;18.65;6.10;;;7.30;99.90;;;;;;5079617;28;20485;-43
2021/12/19 02:06:39;;;;;;;14.80;6.57;;;7.30;99.90;;;;;;5088644;28;20031;-42
2021/12/19 02:09:06;;;;;;;12.27;6.03;;;7.30;99.90;;;;;;5088008;28;20024;-42
2021/12/19 02:11:37;;;;;;;11.30;6.97;;;7.30;99.90;;;;;;5088687;28;20054;-42
2021/12/19 02:14:05;;;;;;;14.43;7.30;;;7.30;99.90;;;;;;5088361;28;20028;-42
2021/12/19 02:16:31;;;;;;;12.05;7.90;;;7.30;99.90;;;;;;5088352;28;20067;-42
2021/12/19 02:18:58;;;;;;;17.05;8.30;;;7.30;99.90;;;;;;5087630;28;20036;-42
2021/12/19 02:21:23;;;;;;;12.93;8.35;;;7.30;99.90;;;;;;5088105;28;20096;-43
2021/12/19 02:23:50;;;;;;;15.43;7.57;;;7.30;99.90;;;;;;5087997;28;20370;-43
2021/12/19 02:26:16;;;;;;;12.25;7.32;;;7.30;99.90;;;;;;5087966;28;20107;-43
2021/12/19 02:28:42;;;;;;;12.32;7.20;;;7.30;99.90;;;;;;5085759;28;20469;-42
2021/12/19 02:31:09;;;;;;;12.15;7.40;;;7.40;99.90;;;;;;5083036;28;20105;-42
2021/12/19 02:33:40;;;;;;;16.85;7.47;;;7.40;99.90;;;;;;5079153;28;20028;-42
2021/12/19 02:49:31;;;;;;;16.67;7.60;;;7.30;99.90;;;;;;5087233;28;19911;-43
2021/12/19 02:51:56;;;;;;;17.58;8.20;;;7.30;99.90;;;;;;5086333;28;20154;-43
2021/12/19 02:54:23;;;;;;;17.23;8.55;;;7.30;99.90;;;;;;5087778;28;20162;-43
2021/12/19 02:56:50;;;;;;;14.90;8.70;;;7.30;99.90;;;;;;5079692;28;20078;-43
2021/12/19 02:59:15;;;;;;;18.80;8.15;;;7.30;99.90;;;;;;5077975;28;20020;-43
2021/12/19 03:01:43;;;;;;;17.45;7.93;;;7.20;99.90;;;;;;5087611;28;20460;-43
2021/12/19 03:04:09;;;;;;;12.98;7.20;;;7.20;99.90;;;;;;5087706;28;20024;-43
2021/12/19 03:06:34;;;;;;;22.20;6.82;;;7.30;99.90;;;;;;5087457;28;20388;-43
2021/12/19 03:09:06;;;;;;;13.93;5.78;;;7.30;99.90;;;;;;5087199;28;20020;-42
2021/12/19 03:19:40;;;;;;;10.93;4.65;;;7.30;99.90;;;;;;5087367;28;20030;-43
2021/12/19 03:22:05;;;;;;;9.13;4.80;;;7.30;99.90;;;;;;5087496;28;20028;-43
2021/12/19 03:24:31;;;;;;;13.02;4.90;;;7.40;99.90;;;;;;5087549;28;20028;-42
2021/12/19 03:26:56;;;;;;;14.15;4.72;;;7.30;99.90;;;;;;5079663;28;20474;-42
2021/12/19 03:29:22;;;;;;;13.18;4.47;;;7.30;99.90;;;;;;5077847;28;20027;-43
2021/12/19 03:31:48;;;;;;;14.02;4.57;;;7.40;99.90;;;;;;5087761;28;20700;-43
2021/12/19 03:34:13;;;;;;;16.10;4.00;;;7.40;99.90;;;;;;5087242;28;20117;-42
2021/12/19 03:36:39;;;;;;;13.95;4.85;;;7.40;99.90;;;;;;5087149;28;20036;-43
2021/12/19 03:39:15;;;;;;;10.63;4.55;;;7.40;99.90;;;;;;5086095;28;20125;-43
2021/12/19 03:41:42;;;;;;;16.17;4.57;;;7.40;99.90;;;;;;5087068;28;20054;-43
2021/12/19 03:44:07;;;;;;;15.20;5.03;;;7.40;99.90;;;;;;5066757;28;20620;-43
2021/12/19 03:46:33;;;;;;;19.33;5.10;;;7.40;99.90;;;;;;5069435;28;20108;-43
2021/12/19 03:48:58;;;;;;;14.77;4.93;;;7.40;99.90;;;;;;5069599;28;20512;-43
2021/12/19 03:51:24;;;;;;;15.90;5.20;;;7.40;99.90;;;;;;5070017;28;20024;-43
2021/12/19 03:53:50;;;;;;;19.45;4.93;;;7.40;99.90;;;;;;5069855;28;20052;-43
2021/12/19 03:56:16;;;;;;;11.77;4.72;;;7.30;99.90;;;;;;5070058;28;20234;-43
2021/12/19 03:58:41;;;;;;;14.52;4.45;;;7.40;99.90;;;;;;5077411;28;20814;-43
2021/12/19 04:01:09;;;;;;;15.68;4.43;;;7.30;99.90;;;;;;5086084;28;20031;-44
2021/12/19 04:03:34;;;;;;;7.40;4.40;;;7.30;99.90;;;;;;5080775;28;20026;-43
2021/12/19 04:06:01;;;;;;;15.07;4.40;;;7.40;99.90;;;;;;5090315;28;20028;-44
2021/12/19 04:08:27;;;;;;;10.32;4.63;;;7.50;99.90;;;;;;5090014;28;20024;-43
2021/12/19 04:10:53;;;;;;;19.23;5.53;;;7.50;99.90;;;;;;5090680;28;20016;-44
2021/12/19 04:13:20;;;;;;;14.85;5.95;;;7.40;99.90;;;;;;5089039;28;20020;-42
2021/12/19 04:15:46;;;;;;;13.70;4.57;;;7.40;99.90;;;;;;5090821;28;20021;-43
2021/12/19 04:18:11;;;;;;;13.18;4.63;;;7.40;99.90;;;;;;5089517;28;20024;-44
2021/12/19 04:20:37;;;;;;;14.48;5.15;;;7.40;99.90;;;;;;5078659;28;20086;-43
2021/12/19 04:23:04;;;;;;;9.45;5.38;;;7.40;99.90;;;;;;5088132;28;20097;-43
2021/12/19 04:25:29;;;;;;;13.15;4.68;;;7.40;99.90;;;;;;5090083;28;20020;-44
2021/12/19 04:27:55;;;;;;;10.30;4.97;;;7.40;99.90;;;;;;5089586;28;20051;-43
2021/12/19 04:30:23;;;;;;;16.90;5.78;;;7.40;99.90;;;;;;5090077;28;20028;-43
2021/12/19 04:33:02;;;;;;;16.20;5.70;;;7.40;99.90;;;;;;5089903;28;20020;-43
2021/12/19 04:35:32;;;;;;;14.05;5.85;;;7.40;99.90;;;;;;5089880;28;20020;-44
2021/12/19 04:57:00;;;;;;;15.18;6.85;;;7.50;99.90;;;;;;5088663;28;20402;-43
2021/12/19 04:59:51;;;;;;;17.38;6.85;;;7.40;99.90;;;;;;5088696;28;20117;-43
2021/12/19 05:02:35;;;;;;;17.75;7.55;;;7.50;99.90;;;;;;5083431;28;20486;-42
2021/12/19 05:15:57;;;;;;;12.27;6.07;;;7.40;99.90;;;;;;5088919;28;20524;-42
2021/12/19 05:18:27;;;;;;;11.70;5.35;;;7.40;99.90;;;;;;5088331;28;20040;-44
2021/12/19 05:20:57;;;;;;;8.88;5.03;;;7.40;99.90;;;;;;5088855;28;20495;-44
2021/12/19 05:26:08;;;;;;;10.00;4.60;;;7.40;99.90;;;;;;5077406;28;20066;-43
2021/12/19 05:28:34;;;;;;;13.45;5.35;;;7.40;99.90;;;;;;5088348;28;20068;-43
2021/12/19 05:30:59;;;;;;;11.50;4.80;;;7.40;99.90;;;;;;5087800;28;20031;-44
2021/12/19 05:33:25;;;;;;;16.13;5.68;;;7.40;99.90;;;;;;5080102;28;20020;-43
2021/12/19 05:44:11;;;;;;;10.52;4.40;;;7.40;99.90;;;;;;5089044;28;20040;-43
2021/12/19 05:46:53;;;;;;;12.98;4.70;;;7.40;99.90;;;;;;5078118;28;20031;-44
2021/12/19 05:49:19;;;;;;;20.38;4.60;;;7.40;99.90;;;;;;5065604;28;20019;-43
2021/12/19 05:51:44;;;;;;;13.70;4.32;;;7.40;99.90;;;;;;5067659;28;20237;-44
2021/12/19 05:54:10;;;;;;;15.48;5.18;;;7.40;99.90;;;;;;5067911;28;20173;-43
2021/12/19 05:56:36;;;;;;;15.02;3.90;;;7.40;99.90;;;;;;5067176;28;20121;-43
2021/12/19 05:59:02;;;;;;;8.43;3.53;;;7.40;99.90;;;;;;5066572;28;20031;-43
2021/12/19 06:01:28;;;;;;;12.25;3.50;;;7.40;99.90;;;;;;5066446;28;20275;-44
2021/12/19 06:03:53;;;;;;;8.25;3.83;;;7.40;99.90;;;;;;5076666;28;20467;-43
2021/12/19 06:06:19;;;;;;;15.55;4.25;;;7.40;99.90;;;;;;5067306;28;20036;-44
2021/12/19 06:08:45;;;;;;;17.10;4.45;;;7.40;99.90;;;;;;5065238;28;20047;-44
2021/12/19 06:11:10;;;;;;;12.45;4.10;;;7.30;99.90;;;;;;5064746;28;20132;-44
2021/12/19 06:13:37;;;;;;;9.32;4.15;;;7.40;99.90;;;;;;5066138;28;20111;-43
2021/12/19 06:16:04;;;;;;;13.63;4.55;;;7.40;99.90;;;;;;5067589;28;20031;-43
2021/12/19 06:18:29;;;;;;;14.85;4.68;;;7.40;99.90;;;;;;5065928;28;20016;-43
2021/12/19 06:20:55;;;;;;;18.00;5.07;;;7.40;99.90;;;;;;5067631;28;20032;-44
2021/12/19 06:23:20;;;;;;;16.45;5.28;;;7.40;99.90;;;;;;5079783;28;20023;-43
2021/12/19 06:25:46;;;;;;;20.25;5.32;;;7.40;99.90;;;;;;5088253;28;20032;-43
2021/12/19 06:28:13;;;;;;;15.90;5.32;;;7.40;99.90;;;;;;5087323;28;20039;-44
2021/12/19 06:30:39;;;;;;;18.60;5.75;;;7.40;99.90;;;;;;5087832;28;20020;-43
2021/12/19 06:33:04;;;;;;;11.85;5.35;;;7.30;99.90;;;;;;5087202;28;20490;-43
2021/12/19 06:35:31;;;;;;;15.70;6.45;;;7.40;99.90;;;;;;5087460;28;20031;-44
2021/12/19 06:37:56;;;;;;;18.77;5.57;;;7.40;99.90;;;;;;5087218;28;20071;-45
2021/12/19 06:40:22;;;;;;;12.18;6.05;;;7.30;99.90;;;;;;5087433;28;20802;-43
2021/12/19 06:42:48;;;;;;;14.15;5.80;;;7.40;99.90;;;;;;5087977;28;20077;-44
2021/12/19 06:45:14;;;;;;;15.25;6.03;;;7.30;99.90;;;;;;5088049;28;20034;-44
2021/12/19 06:47:40;;;;;;;17.45;5.93;;;7.40;99.90;;;;;;5086380;28;20029;-44
2021/12/19 06:50:07;;;;;;;14.48;4.85;;;7.40;99.90;;;;;;5087529;28;20089;-43
2021/12/19 06:52:34;;;;;;;19.55;5.78;;;7.40;99.90;;;;;;5076134;28;20029;-44
2021/12/19 06:55:00;;;;;;;20.92;4.95;;;7.40;99.90;;;;;;5083944;28;20554;-44
2021/12/19 06:57:25;;;;;;;16.63;5.68;;;7.40;99.90;;;;;;5086975;28;20086;-44
2021/12/19 06:59:51;;;;;;;16.48;4.90;;;7.30;99.90;;;;;;5087454;28;20070;-44
2021/12/19 07:02:17;;;;;;;13.80;5.75;;;7.40;99.90;;;;;;5078875;28;20064;-42
2021/12/19 07:04:44;;;;;;;15.38;5.32;;;7.40;99.90;;;;;;5078783;28;20427;-42
2021/12/19 07:07:10;;;;;;;17.85;5.63;;;7.40;99.90;;;;;;5087018;28;20116;-42
2021/12/19 07:09:36;;;;;;;13.57;4.57;;;7.40;99.90;;;;;;5087405;28;20111;-42
2021/12/19 07:12:02;;;;;;;19.85;5.75;;;7.40;99.90;;;;;;5087845;28;20028;-41
2021/12/19 07:14:28;;;;;;;9.23;4.70;;;7.40;99.90;;;;;;5087193;28;20045;-42
2021/12/19 07:16:53;;;;;;;10.23;4.78;;;7.40;99.90;;;;;;5086915;28;20028;-42
2021/12/19 07:19:19;;;;;;;19.10;5.43;;;7.40;99.90;;;;;;5079827;28;20386;-41
2021/12/19 07:21:44;;;;;;;16.17;5.32;;;7.40;99.90;;;;;;5084682;28;20024;-41
2021/12/19 07:24:10;;;;;;;15.77;5.30;;;7.40;99.90;;;;;;5091827;28;20020;-47
2021/12/19 07:26:35;;;;;;;14.77;6.10;;;7.40;99.90;;;;;;5088415;28;20020;-45
2021/12/19 07:29:00;;;;;;;18.20;4.88;;;7.40;99.90;;;;;;5082108;28;20050;-44
2021/12/19 07:31:29;;;;;;;25.30;6.07;;;7.40;99.90;;;;;;5090719;28;20028;-43
2021/12/19 07:33:55;;;;;;;18.98;5.15;;;7.40;99.90;;;;;;5091478;28;20020;-44
2021/12/19 07:36:24;;;;;;;13.32;5.45;;;7.40;99.90;;;;;;5090671;28;20078;-41
2021/12/19 07:38:55;;;;;;;10.63;6.18;;;7.40;99.90;;;;;;5090256;28;20159;-42
2021/12/19 07:41:21;;;;;;;18.27;6.30;;;7.40;99.90;;;;;;5090662;28;20077;-41
2021/12/19 07:43:46;;;;;;;13.48;5.50;;;7.40;99.90;;;;;;5090415;28;20056;-42
2021/12/19 07:46:12;;;;;;;14.52;5.43;;;7.50;99.90;;;;;;5090923;28;20028;-44
2021/12/19 07:48:37;;;;;;;15.13;4.60;;;7.50;99.90;;;;;;5089865;28;20041;-42
2021/12/19 07:51:03;;;;;;;14.18;4.38;;;7.40;99.90;;;;;;5090808;28;20486;-42
2021/12/19 07:53:28;;;;;;;9.07;3.95;;;7.40;99.90;;;;;;5089329;28;20390;-42
2021/12/19 07:55:55;;;;;;;6.35;3.42;;;7.50;99.90;;;;;;5088483;28;20107;-42
2021/12/19 07:58:20;;;;;;;9.98;3.67;;;7.60;99.90;;;;;;5081187;28;20012;-41
2021/12/19 08:00:46;;;;;;;12.18;4.47;;;7.50;99.90;;;;;;5090589;28;20093;-41
2021/12/19 08:03:11;;;;;;;11.48;4.10;;;7.50;99.90;;;;;;5079713;28;20028;-42
2021/12/19 08:05:37;;;;;;;12.15;3.67;;;7.50;99.90;;;;;;5084741;28;20609;-42
2021/12/19 08:08:04;;;;;;;9.38;3.33;;;7.50;99.90;;;;;;5089902;28;20024;-41
2021/12/19 08:12:56;;;;;;;12.15;3.72;;;7.50;99.90;;;;;;5090310;28;20036;-44
2021/12/19 08:15:22;;;;;;;13.68;4.47;;;7.50;99.90;;;;;;5090498;28;20265;-44
2021/12/19 08:17:47;;;;;;;8.85;3.45;;;7.50;99.90;;;;;;5089259;28;20034;-44
2021/12/19 08:20:15;;;;;;;14.00;4.30;;;7.50;99.90;;;;;;5090372;28;20036;-44
2021/12/19 08:22:40;;;;;;;7.47;3.65;;;7.60;99.90;;;;;;5090234;28;20016;-44
2021/12/19 08:25:07;;;;;;;10.15;3.83;;;7.50;99.90;;;;;;5090192;28;20032;-44
2021/12/19 08:27:34;;;;;;;9.90;3.78;;;7.50;99.90;;;;;;5089404;28;20176;-43
2021/12/19 08:30:00;;;;;;;17.70;3.80;;;7.50;99.90;;;;;;5090095;28;20016;-43
2021/12/19 08:32:25;;;;;;;10.55;3.58;;;7.50;99.90;;;;;;5082145;28;20019;-42
2021/12/19 08:34:51;;;;;;;10.82;3.95;;;7.50;99.90;;;;;;5081417;28;20020;-41
2021/12/19 08:37:17;;;;;;;15.25;5.63;;;7.50;99.90;;;;;;5089650;28;20028;-41
2021/12/19 08:39:43;;;;;;;11.07;4.88;;;7.50;99.90;;;;;;5089734;28;20040;-41
2021/12/19 08:42:09;;;;;;;15.13;5.15;;;7.50;99.90;;;;;;5089789;28;20030;-44
2021/12/19 08:44:35;;;;;;;13.48;4.88;;;7.50;99.90;;;;;;5089681;28;20234;-44
2021/12/19 08:47:01;;;;;;;12.45;4.35;;;7.40;99.90;;;;;;5089503;28;20123;-42
2021/12/19 08:49:27;;;;;;;9.07;3.60;;;7.40;99.90;;;;;;5088971;28;20493;-43
2021/12/19 08:51:53;;;;;;;10.80;4.53;;;7.50;99.90;;;;;;5089365;28;20020;-44
2021/12/19 08:54:19;;;;;;;10.63;4.47;;;7.50;99.90;;;;;;5089544;28;20017;-43
2021/12/19 08:56:44;;;;;;;13.38;3.70;;;7.40;99.90;;;;;;5089090;28;20158;-43
2021/12/19 08:59:11;;;;;;;9.20;3.22;;;7.50;99.90;;;;;;5088941;28;20085;-44
2021/12/19 09:01:37;;;;;;;9.68;3.15;;;7.50;99.90;;;;;;5082367;28;20024;-42
2021/12/19 09:04:02;;;;;;;6.85;2.20;;;7.40;99.90;;;;;;5065685;28;20391;-42
2021/12/19 09:06:28;;;;;;;8.15;2.53;;;7.40;99.90;;;;;;5070596;28;20066;-43
2021/12/19 09:08:53;;;;;;;8.80;2.33;;;7.30;99.90;;;;;;5068153;28;20045;-42
2021/12/19 09:11:20;;;;;;;4.78;2.35;;;7.30;99.90;;;;;;5068500;28;20148;-42
2021/12/19 09:13:45;;;;;;;9.27;2.55;;;7.30;99.90;;;;;;5084137;28;20444;-46
2021/12/19 09:16:11;;;;;;;4.35;2.17;;;7.30;99.90;;;;;;5070468;28;20036;-45
2021/12/19 09:18:37;;;;;;;4.78;2.42;;;7.30;99.90;;;;;;5079225;28;20026;-43
2021/12/19 09:21:02;;;;;;;4.45;1.90;;;7.40;99.90;;;;;;5088725;28;20086;-42
2021/12/19 09:23:29;;;;;;;5.70;1.65;;;7.40;99.90;;;;;;5088637;28;20036;-43
2021/12/19 09:25:54;;;;;;;8.35;2.85;;;7.40;99.90;;;;;;5088690;28;20439;-44
2021/12/19 09:28:20;;;;;;;5.38;2.13;;;7.40;99.90;;;;;;5086055;28;20020;-43
2021/12/19 09:30:46;;;;;;;9.02;2.10;;;7.40;99.90;;;;;;5088532;28;20297;-43
2021/12/19 09:33:11;;;;;;;4.13;1.88;;;7.40;99.90;;;;;;5087057;28;20574;-42
2021/12/19 09:35:37;;;;;;;7.10;2.75;;;7.40;99.90;;;;;;5087464;28;20074;-43
2021/12/19 09:38:04;;;;;;;8.05;2.58;;;7.40;99.90;;;;;;5087102;28;20535;-43
2021/12/19 09:40:36;;;;;;;9.27;2.58;;;7.50;99.90;;;;;;5073550;28;20130;-43
2021/12/19 09:43:10;;;;;;;3.78;2.03;;;7.50;99.90;;;;;;5065329;28;20437;-43
2021/12/19 09:45:36;;;;;;;9.02;2.22;;;7.50;99.90;;;;;;5065778;28;20020;-42
2021/12/19 09:48:02;;;;;;;7.25;2.25;;;7.50;99.90;;;;;;5066789;28;20050;-43
2021/12/19 09:50:30;;;;;;;9.38;2.17;;;7.50;99.90;;;;;;5068297;28;20045;-43
2021/12/19 09:52:56;;;;;;;4.70;2.30;;;7.50;99.90;;;;;;5066878;28;20103;-44
2021/12/19 09:55:22;;;;;;;4.75;2.20;;;7.50;99.90;;;;;;5067764;28;20044;-43
2021/12/19 09:57:52;;;;;;;5.32;2.15;;;7.50;99.90;;;;;;5066963;28;20524;-42
2021/12/19 10:00:19;;;;;;;5.15;1.85;;;7.50;99.90;;;;;;5067925;28;20115;-45
2021/12/19 10:02:45;;;;;;;6.10;2.22;;;7.50;99.90;;;;;;5075078;28;20019;-43
2021/12/19 10:05:16;;;;;;;7.15;2.00;;;7.50;99.90;;;;;;5079638;28;20028;-43
2021/12/19 10:07:47;;;;;;;5.75;2.00;;;7.50;99.90;;;;;;5086017;28;20028;-45
2021/12/19 10:10:23;;;;;;;8.35;2.05;;;7.50;99.90;;;;;;5088143;28;20182;-43
2021/12/19 10:12:58;;;;;;;5.00;1.80;;;7.50;99.90;;;;;;5088292;28;20489;-43
2021/12/19 10:15:33;;;;;;;5.28;1.80;;;7.50;99.90;;;;;;5087991;28;20025;-43
2021/12/19 10:18:04;;;;;;;4.60;2.60;;;7.50;99.90;;;;;;5086819;28;20020;-45
2021/12/19 10:20:40;;;;;;;3.97;1.80;;;7.50;99.90;;;;;;5088114;28;20107;-43
2021/12/19 10:23:12;;;;;;;3.78;1.52;;;7.50;99.90;;;;;;5087868;28;20036;-44
2021/12/19 10:25:37;;;;;;;3.35;1.42;;;7.50;99.90;;;;;;5087455;28;20032;-43
2021/12/19 10:28:09;;;;;;;8.02;1.63;;;7.60;99.90;;;;;;5087554;28;20068;-43
2021/12/19 10:30:38;;;;;;;2.08;1.60;;;7.60;99.90;;;;;;5102724;28;20218;-46
2021/12/19 10:33:13;;;;;;;4.30;1.60;;;7.60;99.90;;;;;;5080236;28;20127;-43
2021/12/19 10:35:40;;;;;;;5.03;1.80;;;7.60;99.90;;;;;;5082204;28;20028;-43
2021/12/19 10:38:19;;;;;;;5.07;2.53;;;7.70;99.90;;;;;;5087291;28;20043;-43
2021/12/19 10:40:50;;;;;;;2.97;1.50;;;7.70;99.90;;;;;;5087841;28;20028;-43
2021/12/19 10:43:17;;;;;;;5.25;1.58;;;7.70;99.90;;;;;;5087745;28;20035;-44
2021/12/19 10:45:53;;;;;;;4.20;1.90;;;7.80;99.90;;;;;;5087917;28;20020;-43
2021/12/19 10:48:23;;;;;;;2.88;1.80;;;7.80;99.90;;;;;;5086932;28;20441;-44
2021/12/19 10:50:50;;;;;;;6.28;1.70;;;7.80;99.90;;;;;;5087775;28;20032;-43
2021/12/19 10:53:17;;;;;;;5.93;1.85;;;7.80;99.90;;;;;;5087394;28;20024;-43
2021/12/19 10:55:46;;;;;;;4.05;1.70;;;7.80;99.90;;;;;;5086948;28;20028;-43
2021/12/19 10:58:23;;;;;;;2.45;1.77;;;7.80;99.90;;;;;;5080624;28;20035;-43
2021/12/19 11:01:05;;;;;;;6.32;1.80;;;7.80;99.90;;;;;;5083146;28;20016;-45
2021/12/19 11:03:36;;;;;;;5.10;1.60;;;7.80;99.90;;;;;;5064251;28;20071;-43
2021/12/19 11:06:12;;;;;;;4.30;1.58;;;7.80;99.90;;;;;;5068791;28;20036;-43
2021/12/19 11:08:39;;;;;;;3.95;1.73;;;7.70;99.90;;;;;;5085532;28;20021;-43
2021/12/19 11:11:05;;;;;;;3.83;1.90;;;7.70;99.90;;;;;;5086756;28;20020;-44
2021/12/19 11:13:30;;;;;;;3.38;1.75;;;7.70;99.90;;;;;;5087236;28;20024;-43
2021/12/19 11:15:56;;;;;;;5.82;1.88;;;7.70;99.90;;;;;;5087416;28;20034;-44
2021/12/19 11:18:22;;;;;;;7.85;2.15;;;7.70;99.90;;;;;;5085951;28;20020;-43
2021/12/19 11:20:48;;;;;;;6.53;2.00;;;7.70;99.90;;;;;;5074928;28;20029;-43
2021/12/19 11:23:13;;;;;;;6.78;2.13;;;7.80;99.90;;;;;;5086595;28;20535;-42
2021/12/19 11:25:39;;;;;;;6.32;2.08;;;7.80;99.90;;;;;;5086033;28;20033;-43
2021/12/19 11:28:05;;;;;;;6.82;2.30;;;7.70;99.90;;;;;;5065992;28;20610;-45
2021/12/19 11:30:31;;;;;;;7.47;2.28;;;7.70;99.90;;;;;;5066091;28;20027;-43
2021/12/19 11:33:24;;;;;;;5.78;2.17;;;7.70;99.90;;;;;;5065838;28;20103;-43
2021/12/19 11:35:55;;;;;;;11.48;2.85;;;7.60;99.90;;;;;;5065944;28;20035;-43
2021/12/19 11:38:22;;;;;;;7.32;2.20;;;7.60;99.90;;;;;;5068606;28;20108;-44
2021/12/19 11:40:51;;;;;;;10.15;2.90;;;7.60;99.90;;;;;;5064200;28;20071;-43
2021/12/19 11:43:17;;;;;;;7.15;2.10;;;7.50;99.90;;;;;;5066828;28;20070;-43
2021/12/19 11:45:52;;;;;;;10.43;2.25;;;7.50;99.90;;;;;;5067053;28;20024;-43
2021/12/19 11:48:32;;;;;;;8.18;2.35;;;7.50;99.90;;;;;;5066322;28;20032;-43
2021/12/19 11:51:04;;;;;;;15.83;3.10;;;7.40;99.90;;;;;;5072435;28;20028;-43
2021/12/19 11:53:41;;;;;;;6.82;2.47;;;7.50;99.90;;;;;;5087183;28;20028;-43
2021/12/19 11:56:10;;;;;;;14.48;2.75;;;7.50;99.90;;;;;;5087242;28;20102;-46
2021/12/19 11:58:49;;;;;;;5.85;2.42;;;7.40;99.90;;;;;;5085086;28;20082;-43
2021/12/19 12:01:27;;;;;;;10.02;3.10;;;7.50;99.90;;;;;;5085876;28;20024;-42
2021/12/19 12:04:12;;;;;;;9.55;2.95;;;7.40;99.90;;;;;;5075420;28;20025;-44
2021/12/19 12:06:52;;;;;;;17.48;3.38;;;7.50;99.90;;;;;;5088785;28;20501;-42
2021/12/19 12:09:27;;;;;;;6.30;2.20;;;7.40;99.90;;;;;;5089987;28;20028;-43
2021/12/19 12:12:07;;;;;;;13.38;3.05;;;7.50;99.90;;;;;;5090650;28;20415;-43
2021/12/19 12:14:38;;;;;;;15.20;2.40;;;7.50;99.90;;;;;;5089183;28;20020;-43
2021/12/19 12:17:12;;;;;;;9.68;2.47;;;7.50;99.90;;;;;;5090311;28;20032;-44
2021/12/19 12:19:49;;;;;;;6.22;2.30;;;7.60;99.90;;;;;;5068218;28;20028;-43
2021/12/19 12:22:45;;;;;;;12.65;2.85;;;7.60;99.90;;;;;;5070371;28;20413;-43
2021/12/19 12:25:18;;;;;;;13.57;3.13;;;7.60;99.90;;;;;;5069775;28;20037;-44
2021/12/19 12:27:52;;;;;;;13.85;3.05;;;7.60;99.90;;;;;;5068163;28;20289;-43
2021/12/19 12:30:24;;;;;;;5.07;2.53;;;7.60;99.90;;;;;;5070308;28;20035;-42
2021/12/19 12:32:50;;;;;;;9.60;2.78;;;7.60;99.90;;;;;;5077513;28;20016;-44
2021/12/19 12:35:17;;;;;;;8.38;2.42;;;7.60;99.90;;;;;;5081824;28;20213;-44
2021/12/19 12:37:44;;;;;;;7.03;2.63;;;7.60;99.90;;;;;;5089925;28;20424;-44
2021/12/19 12:40:18;;;;;;;8.25;3.05;;;7.60;99.90;;;;;;5089670;28;20051;-43
2021/12/19 12:43:05;;;;;;;13.75;2.78;;;7.60;99.90;;;;;;5090047;28;20028;-44
2021/12/19 12:45:50;;;;;;;10.60;2.67;;;7.60;99.90;;;;;;5083626;28;20032;-43
2021/12/19 12:48:35;;;;;;;6.82;2.80;;;7.70;99.90;;;;;;5080018;28;20036;-44
2021/12/19 12:51:07;;;;;;;15.27;2.83;;;7.70;99.90;;;;;;5089825;28;20039;-44
2021/12/19 12:53:55;;;;;;;15.10;3.70;;;7.60;99.90;;;;;;5089905;28;20050;-43
2021/12/19 12:56:24;;;;;;;10.07;2.88;;;7.60;99.90;;;;;;5089831;28;20427;-42
2021/12/19 12:58:55;;;;;;;12.90;2.92;;;7.70;99.90;;;;;;5089105;28;20028;-42
2021/12/19 13:01:23;;;;;;;12.90;2.70;;;7.60;99.90;;;;;;5089636;28;20320;-44
2021/12/19 13:04:02;;;;;;;11.60;2.90;;;7.60;99.90;;;;;;5079145;28;20020;-43
2021/12/19 13:06:47;;;;;;;11.70;3.55;;;7.60;99.90;;;;;;5068525;28;20377;-43
2021/12/19 13:09:20;;;;;;;25.27;4.25;;;7.50;99.90;;;;;;5066953;28;20125;-43
2021/12/19 13:11:49;;;;;;;14.88;3.30;;;7.50;99.90;;;;;;5069084;28;20062;-43
2021/12/19 13:14:22;;;;;;;10.52;3.05;;;7.50;99.90;;;;;;5069391;28;20389;-43
2021/12/19 13:16:54;;;;;;;11.77;3.30;;;7.50;99.90;;;;;;5069134;28;20031;-43
2021/12/19 13:19:38;;;;;;;7.78;3.40;;;7.50;99.90;;;;;;5076393;28;20610;-43
2021/12/19 13:22:06;;;;;;;10.40;3.53;;;7.50;99.90;;;;;;5057008;28;20037;-43
2021/12/19 13:24:34;;;;;;;11.05;2.45;;;7.50;99.90;;;;;;5075870;28;20524;-43
2021/12/19 13:27:08;;;;;;;9.27;3.20;;;7.40;99.90;;;;;;5081172;28;20027;-45
2021/12/19 13:29:34;;;;;;;13.38;3.08;;;7.40;99.90;;;;;;5080017;28;20016;-43
2021/12/19 13:32:22;;;;;;;13.13;3.40;;;7.40;99.90;;;;;;5088707;28;20073;-43
2021/12/19 13:34:49;;;;;;;15.35;3.22;;;7.40;99.90;;;;;;5061626;28;20024;-43
2021/12/19 13:37:14;;;;;;;8.95;3.10;;;7.40;99.90;;;;;;5067718;28;20449;-43
2021/12/19 13:39:42;;;;;;;14.38;3.85;;;7.40;99.90;;;;;;5068138;28;20024;-43
2021/12/19 13:42:08;;;;;;;11.70;2.75;;;7.40;99.90;;;;;;5067878;28;20646;-43
2021/12/19 13:44:34;;;;;;;13.85;3.95;;;7.40;99.90;;;;;;5067918;28;20437;-44
2021/12/19 13:47:13;;;;;;;17.10;4.07;;;7.40;99.90;;;;;;5077044;28;20057;-44
2021/12/19 13:49:39;;;;;;;13.93;4.03;;;7.40;99.90;;;;;;5087946;28;20024;-43
2021/12/19 13:52:07;;;;;;;19.65;3.83;;;7.40;99.90;;;;;;5078295;28;20046;-45
2021/12/19 13:54:34;;;;;;;17.38;3.85;;;7.50;99.90;;;;;;5077552;28;20023;-44
2021/12/19 13:57:00;;;;;;;11.25;3.63;;;7.50;99.90;;;;;;5068024;28;20035;-44
2021/12/19 13:59:27;;;;;;;11.55;3.47;;;7.50;99.90;;;;;;5074186;28;20143;-44
2021/12/19 14:01:53;;;;;;;14.25;4.10;;;7.50;99.90;;;;;;5068127;28;20174;-43
2021/12/19 14:04:24;;;;;;;11.73;3.95;;;7.50;99.90;;;;;;5075384;28;20118;-43
2021/12/19 14:06:57;;;;;;;11.85;3.65;;;7.50;99.90;;;;;;5084140;28;20051;-45
2021/12/19 14:09:23;;;;;;;14.05;2.97;;;7.40;99.90;;;;;;5086949;28;20069;-45